createdAt,value
2023-05-10T00:04:38.158Z,54.58
2023-05-10T00:09:41.303Z,53.97
2023-05-10T00:14:44.208Z,54.11
2023-05-10T00:19:47.214Z,54.28
2023-05-10T00:24:50.129Z,54.68
2023-05-10T00:29:53.026Z,54.70
2023-05-10T00:34:56.297Z,55.26
2023-05-10T00:39:59.138Z,56.21
2023-05-10T00:45:02.042Z,55.92
2023-05-10T00:50:06.485Z,57.17
2023-05-10T00:55:13.380Z,58.84
2023-05-10T01:00:19.382Z,57.93
2023-05-10T01:05:22.883Z,58.27
2023-05-10T01:10:26.145Z,58.50
2023-05-10T01:15:29.125Z,57.60
2023-05-10T01:20:48.124Z,57.63
2023-05-10T01:26:18.736Z,58.16
2023-05-10T01:31:53.382Z,59.07
2023-05-10T01:37:04.170Z,59.23
2023-05-10T01:42:12.970Z,59.30
2023-05-10T01:47:22.585Z,60.46
2023-05-10T01:52:34.083Z,60.98
2023-05-10T01:57:40.888Z,60.78
2023-05-10T02:02:48.516Z,61.03
2023-05-10T02:07:52.971Z,61.66
2023-05-10T02:12:59.857Z,61.69
2023-05-10T02:18:04.950Z,61.75
2023-05-10T02:23:09.836Z,62.11
2023-05-10T02:28:14.190Z,61.89
2023-05-10T02:33:18.417Z,55.54
2023-05-10T02:38:23.777Z,56.23
2023-05-10T02:43:27.349Z,58.65
2023-05-10T02:48:30.771Z,60.08
2023-05-10T02:53:39.863Z,61.21
2023-05-10T02:58:42.758Z,62.36
2023-05-10T03:03:46.281Z,57.79
2023-05-10T03:08:49.180Z,56.82
2023-05-10T03:14:14.107Z,58.79
2023-05-10T03:19:37.179Z,59.99
2023-05-10T03:24:42.441Z,60.84
2023-05-10T03:29:47.714Z,61.03
2023-05-10T03:34:51.126Z,60.72
2023-05-10T03:39:54.027Z,60.03
2023-05-10T03:44:57.024Z,59.39
2023-05-10T03:50:00.045Z,59.04
2023-05-10T03:55:04.807Z,58.75
2023-05-10T04:00:09.282Z,58.55
2023-05-10T04:05:12.586Z,58.09
2023-05-10T04:10:16.561Z,57.70
2023-05-10T04:15:19.679Z,57.34
2023-05-10T04:20:22.577Z,56.97
2023-05-10T04:25:25.380Z,56.43
2023-05-10T04:30:30.334Z,55.74
2023-05-10T04:35:33.541Z,55.29
2023-05-10T04:40:37.058Z,54.53
2023-05-10T04:45:39.959Z,53.97
2023-05-10T04:50:43.274Z,53.36
2023-05-10T04:55:46.591Z,52.88
2023-05-10T05:00:49.526Z,52.46
2023-05-10T05:05:52.513Z,51.35
2023-05-10T05:10:55.918Z,51.14
2023-05-10T05:16:01.707Z,50.67
2023-05-10T05:21:04.595Z,50.01
2023-05-10T05:26:07.494Z,49.39
2023-05-10T05:31:10.556Z,48.43
2023-05-10T05:36:13.618Z,48.06
2023-05-10T05:41:16.518Z,46.56
2023-05-10T05:46:20.415Z,44.72
2023-05-10T05:51:23.632Z,42.70
2023-05-10T05:56:26.667Z,40.71
2023-05-10T06:01:29.668Z,40.75
2023-05-10T06:06:33.404Z,39.95
2023-05-10T06:11:36.562Z,37.50
2023-05-10T06:16:39.423Z,38.15
2023-05-10T06:21:42.732Z,35.13
2023-05-10T06:26:45.631Z,33.16
2023-05-10T06:31:49.322Z,32.71
2023-05-10T06:36:53.024Z,33.33
2023-05-10T06:41:56.084Z,31.93
2023-05-10T06:46:59.085Z,31.06
2023-05-10T06:52:02.196Z,30.44
2023-05-10T06:57:10.755Z,29.93
2023-05-10T07:02:19.538Z,27.69
2023-05-10T07:07:22.679Z,24.94
2023-05-10T07:12:26.592Z,24.56
2023-05-10T07:17:29.782Z,23.74
2023-05-10T07:22:32.937Z,24.23
2023-05-10T07:27:36.661Z,22.54
2023-05-10T07:32:40.798Z,22.21
2023-05-10T07:37:43.706Z,21.62
2023-05-10T07:42:46.667Z,21.98
2023-05-10T07:47:49.645Z,21.80
2023-05-10T07:52:52.819Z,21.86
2023-05-10T07:57:55.815Z,20.75
2023-05-10T08:02:58.854Z,19.22
2023-05-10T08:08:01.936Z,19.84
2023-05-10T08:13:04.841Z,19.77
2023-05-10T08:18:07.824Z,19.15
2023-05-10T08:23:10.950Z,19.89
2023-05-10T08:28:13.958Z,19.11
2023-05-10T08:33:17.308Z,18.01
2023-05-10T08:38:20.185Z,18.50
2023-05-10T08:43:27.173Z,18.22
2023-05-10T08:48:31.204Z,18.39
2023-05-10T08:53:37.423Z,17.99
2023-05-10T08:58:40.571Z,17.91
2023-05-10T09:03:44.111Z,17.40
2023-05-10T09:08:47.405Z,17.21
2023-05-10T09:13:52.787Z,17.80
2023-05-10T09:18:55.781Z,17.58
2023-05-10T09:24:04.499Z,16.79
2023-05-10T09:29:09.742Z,16.50
2023-05-10T09:34:12.716Z,17.13
2023-05-10T09:39:15.624Z,16.09
2023-05-10T09:44:20.088Z,15.84
2023-05-10T09:49:24.091Z,16.24
2023-05-10T09:54:26.990Z,15.69
2023-05-10T09:59:30.660Z,16.57
2023-05-10T10:04:40.229Z,15.90
2023-05-10T10:09:43.281Z,16.24
2023-05-10T10:14:48.226Z,15.87
2023-05-10T10:19:51.551Z,16.39
2023-05-10T10:24:55.849Z,16.68
2023-05-10T10:30:30.836Z,16.90
2023-05-10T10:35:35.196Z,17.15
2023-05-10T10:40:39.213Z,16.88
2023-05-10T10:45:42.627Z,16.43
2023-05-10T10:50:47.261Z,16.56
2023-05-10T10:55:50.187Z,16.72
2023-05-10T11:01:17.574Z,16.90
2023-05-10T11:06:32.877Z,16.08
2023-05-10T11:11:37.028Z,15.99
2023-05-10T11:16:44.755Z,15.76
2023-05-10T11:22:06.048Z,15.84
2023-05-10T11:27:09.233Z,14.92
2023-05-10T11:32:12.253Z,15.62
2023-05-10T11:37:15.077Z,15.43
2023-05-10T11:42:18.267Z,15.54
2023-05-10T11:47:21.274Z,15.26
2023-05-10T11:52:24.691Z,14.72
2023-05-10T11:57:28.685Z,15.47
2023-05-10T12:02:32.416Z,15.53
2023-05-10T12:07:36.474Z,15.83
2023-05-10T12:12:48.728Z,15.61
2023-05-10T12:17:52.322Z,15.53
2023-05-10T12:23:00.680Z,14.90
2023-05-10T12:28:09.562Z,14.78
2023-05-10T12:33:18.671Z,14.40
2023-05-10T12:38:44.235Z,14.73
2023-05-10T12:43:47.664Z,14.86
2023-05-10T12:49:00.232Z,14.42
2023-05-10T12:54:10.135Z,14.41
2023-05-10T12:59:12.958Z,14.46
2023-05-10T13:04:16.033Z,14.49
2023-05-10T13:09:19.028Z,14.02
2023-05-10T13:14:22.232Z,13.13
2023-05-10T13:19:25.223Z,13.77
2023-05-10T13:24:28.038Z,14.05
2023-05-10T13:29:30.836Z,14.43
2023-05-10T13:34:33.621Z,14.30
2023-05-10T13:39:38.479Z,14.44
2023-05-10T13:44:41.747Z,14.83
2023-05-10T13:49:44.562Z,14.27
2023-05-10T13:54:47.351Z,14.02
2023-05-10T13:59:50.233Z,14.28
2023-05-10T14:04:53.112Z,13.97
2023-05-10T14:09:56.218Z,13.76
2023-05-10T14:14:59.334Z,13.64
2023-05-10T14:20:02.438Z,13.96
2023-05-10T14:25:05.969Z,13.62
2023-05-10T14:30:09.293Z,13.64
2023-05-10T14:35:14.494Z,13.90
2023-05-10T14:40:18.979Z,14.10
2023-05-10T14:45:22.157Z,14.04
2023-05-10T14:50:35.829Z,14.32
2023-05-10T14:55:40.093Z,14.46
2023-05-10T15:00:43.431Z,14.82
2023-05-10T15:05:47.910Z,15.18
2023-05-10T15:10:50.656Z,16.39
2023-05-10T15:15:53.683Z,18.79
2023-05-10T15:20:57.046Z,20.77
2023-05-10T15:26:01.854Z,21.36
2023-05-10T15:31:05.042Z,21.80
2023-05-10T15:36:08.326Z,22.16
2023-05-10T15:41:11.614Z,22.85
2023-05-10T15:46:14.480Z,23.54
2023-05-10T15:51:17.588Z,23.59
2023-05-10T15:56:21.274Z,23.78
2023-05-10T16:01:24.335Z,24.47
2023-05-10T16:06:27.525Z,24.13
2023-05-10T16:11:30.510Z,24.62
2023-05-10T16:16:33.708Z,24.62
2023-05-10T16:21:36.821Z,24.47
2023-05-10T16:26:41.338Z,24.75
2023-05-10T16:31:44.370Z,25.04
2023-05-10T16:36:47.280Z,25.55
2023-05-10T16:41:50.177Z,25.78
2023-05-10T16:46:53.520Z,25.82
2023-05-10T16:51:56.321Z,26.10
2023-05-10T16:56:59.621Z,26.28
2023-05-10T17:02:02.561Z,26.39
2023-05-10T17:07:06.450Z,26.79
2023-05-10T17:12:09.447Z,27.04
2023-05-10T17:17:12.350Z,27.01
2023-05-10T17:22:15.672Z,27.27
2023-05-10T17:27:18.678Z,27.29
2023-05-10T17:32:21.727Z,27.58
2023-05-10T17:37:24.688Z,27.77
2023-05-10T17:42:27.494Z,28.25
2023-05-10T17:47:30.523Z,28.71
2023-05-10T17:52:33.828Z,28.98
2023-05-10T17:57:38.970Z,29.54
2023-05-10T18:02:42.220Z,29.87
2023-05-10T18:07:45.690Z,30.21
2023-05-10T18:12:50.747Z,30.66
2023-05-10T18:17:53.686Z,31.11
2023-05-10T18:22:58.561Z,31.24
2023-05-10T18:28:01.626Z,31.95
2023-05-10T18:33:04.595Z,32.11
2023-05-10T18:38:09.912Z,32.53
2023-05-10T18:43:12.851Z,33.22
2023-05-10T18:48:15.692Z,33.70
2023-05-10T18:53:18.697Z,33.93
2023-05-10T18:58:22.513Z,34.24
2023-05-10T19:03:25.421Z,34.69
2023-05-10T19:08:28.935Z,34.69
2023-05-10T19:13:31.737Z,35.46
2023-05-10T19:18:35.388Z,35.90
2023-05-10T19:23:43.286Z,35.88
2023-05-10T19:28:46.537Z,36.07
2023-05-10T19:33:49.690Z,36.59
2023-05-10T19:38:53.820Z,36.56
2023-05-10T19:43:56.746Z,36.64
2023-05-10T19:48:59.505Z,37.05
2023-05-10T19:54:02.877Z,37.26
2023-05-10T19:59:07.918Z,37.81
2023-05-10T20:04:11.096Z,37.71
2023-05-10T20:09:14.029Z,37.35
2023-05-10T20:14:18.220Z,38.34
2023-05-10T20:19:21.068Z,37.48
2023-05-10T20:24:23.968Z,37.14
2023-05-10T20:29:27.076Z,38.43
2023-05-10T20:34:31.123Z,38.29
2023-05-10T20:39:33.930Z,38.39
2023-05-10T20:44:36.814Z,38.25
2023-05-10T20:49:40.129Z,39.35
2023-05-10T20:54:43.441Z,40.29
2023-05-10T20:59:46.346Z,41.23
2023-05-10T21:04:49.295Z,42.86
2023-05-10T21:09:52.793Z,43.39
2023-05-10T21:14:55.775Z,41.98
2023-05-10T21:19:58.686Z,42.45
2023-05-10T21:25:01.707Z,42.00
2023-05-10T21:30:05.483Z,41.56
2023-05-10T21:35:09.234Z,42.47
2023-05-10T21:40:13.106Z,42.83
2023-05-10T21:45:17.297Z,43.30
2023-05-10T21:50:20.731Z,44.71
2023-05-10T21:55:24.029Z,45.33
2023-05-10T22:00:26.929Z,45.47
2023-05-10T22:05:30.044Z,46.03
2023-05-10T22:10:33.919Z,45.78
2023-05-10T22:15:37.186Z,47.09
2023-05-10T22:20:40.086Z,47.30
2023-05-10T22:25:43.090Z,47.55
2023-05-10T22:30:46.051Z,48.06
2023-05-10T22:35:49.005Z,48.22
2023-05-10T22:40:51.720Z,49.14
2023-05-10T22:45:55.013Z,48.61
2023-05-10T22:50:57.818Z,48.83
2023-05-10T22:56:01.373Z,49.29
2023-05-10T23:01:04.446Z,49.51
2023-05-10T23:06:07.351Z,50.28
2023-05-10T23:11:10.255Z,51.06
2023-05-10T23:16:13.524Z,51.02
2023-05-10T23:21:17.597Z,51.47
2023-05-10T23:26:22.783Z,51.36
2023-05-10T23:31:25.879Z,51.62
2023-05-10T23:36:28.794Z,51.33
2023-05-10T23:41:31.976Z,51.51
2023-05-10T23:46:34.742Z,51.83
2023-05-10T23:51:37.556Z,51.71
2023-05-10T23:56:40.486Z,51.40
